sensor_id;sensor_type;location;lat;lon;timestamp;pressure;altitude;pressure_sealevel;temperature;humidity
72950;BME280;64868;45.710;9.590;2024-03-06T00:00:44;98497.31;;;7.84;92.06
72950;BME280;64868;45.710;9.590;2024-03-06T00:03:22;98491.59;;;7.85;92.90
72950;BME280;64868;45.710;9.590;2024-03-06T00:05:49;98507.97;;;8.02;92.52
72950;BME280;64868;45.710;9.590;2024-03-06T00:08:35;98509.56;;;8.03;92.24
72950;BME280;64868;45.710;9.590;2024-03-06T00:11:10;98497.28;;;7.97;92.32
72950;BME280;64868;45.710;9.590;2024-03-06T00:16:55;98468.78;;;7.78;92.26
72950;BME280;64868;45.710;9.590;2024-03-06T00:19:25;98497.44;;;8.01;91.71
72950;BME280;64868;45.710;9.590;2024-03-06T00:22:29;98528.81;;;8.24;91.64
72950;BME280;64868;45.710;9.590;2024-03-06T00:25:25;98486.31;;;8.02;91.37
72950;BME280;64868;45.710;9.590;2024-03-06T00:27:58;98481.31;;;7.96;90.79
72950;BME280;64868;45.710;9.590;2024-03-06T00:30:25;98465.22;;;7.91;90.54
72950;BME280;64868;45.710;9.590;2024-03-06T00:32:59;98459.41;;;7.84;91.07
72950;BME280;64868;45.710;9.590;2024-03-06T00:35:26;98460.22;;;7.84;91.06
72950;BME280;64868;45.710;9.590;2024-03-06T00:37:52;98455.84;;;7.74;90.32
72950;BME280;64868;45.710;9.590;2024-03-06T00:40:26;98522.06;;;8.13;90.77
72950;BME280;64868;45.710;9.590;2024-03-06T00:43:00;98442.00;;;7.54;91.27
72950;BME280;64868;45.710;9.590;2024-03-06T00:45:26;98439.69;;;7.38;91.56
72950;BME280;64868;45.710;9.590;2024-03-06T00:47:52;98438.00;;;7.29;92.25
72950;BME280;64868;45.710;9.590;2024-03-06T00:50:20;98446.41;;;7.27;92.00
72950;BME280;64868;45.710;9.590;2024-03-06T00:52:53;98458.91;;;7.37;91.50
72950;BME280;64868;45.710;9.590;2024-03-06T00:55:21;98444.72;;;7.31;91.89
72950;BME280;64868;45.710;9.590;2024-03-06T00:57:47;98435.00;;;7.30;92.40
72950;BME280;64868;45.710;9.590;2024-03-06T01:00:21;98465.81;;;7.43;91.80
72950;BME280;64868;45.710;9.590;2024-03-06T01:02:54;98458.00;;;7.41;91.46
72950;BME280;64868;45.710;9.590;2024-03-06T01:05:39;98535.69;;;7.99;91.80
72950;BME280;64868;45.710;9.590;2024-03-06T01:11:12;98536.06;;;8.07;91.15
72950;BME280;64868;45.710;9.590;2024-03-06T01:14:04;98542.13;;;8.12;90.68
72950;BME280;64868;45.710;9.590;2024-03-06T01:16:31;98520.16;;;7.91;90.71
72950;BME280;64868;45.710;9.590;2024-03-06T01:19:12;98501.78;;;7.80;90.84
72950;BME280;64868;45.710;9.590;2024-03-06T01:21:39;98507.66;;;7.82;91.68
72950;BME280;64868;45.710;9.590;2024-03-06T01:24:05;98472.56;;;7.54;91.71
72950;BME280;64868;45.710;9.590;2024-03-06T01:26:33;98458.78;;;7.42;91.06
72950;BME280;64868;45.710;9.590;2024-03-06T01:29:06;98469.78;;;7.45;91.13
72950;BME280;64868;45.710;9.590;2024-03-06T01:31:33;98464.13;;;7.33;90.82
72950;BME280;64868;45.710;9.590;2024-03-06T01:34:00;98533.88;;;7.72;90.40
72950;BME280;64868;45.710;9.590;2024-03-06T01:36:38;98458.47;;;7.21;90.26
72950;BME280;64868;45.710;9.590;2024-03-06T01:39:36;98535.16;;;7.75;90.41
72950;BME280;64868;45.710;9.590;2024-03-06T01:42:03;98501.75;;;7.57;90.83
72950;BME280;64868;45.710;9.590;2024-03-06T01:44:51;98524.22;;;7.80;90.58
72950;BME280;64868;45.710;9.590;2024-03-06T01:47:17;98449.94;;;7.28;90.81
72950;BME280;64868;45.710;9.590;2024-03-06T01:49:55;98437.00;;;7.25;91.24
72950;BME280;64868;45.710;9.590;2024-03-06T01:52:31;98532.66;;;7.79;90.51
72950;BME280;64868;45.710;9.590;2024-03-06T01:54:59;98467.16;;;7.32;90.04
72950;BME280;64868;45.710;9.590;2024-03-06T01:57:53;98542.69;;;7.78;90.72
72950;BME280;64868;45.710;9.590;2024-03-06T02:00:26;98509.00;;;7.48;91.28
72950;BME280;64868;45.710;9.590;2024-03-06T02:02:57;98552.41;;;7.79;90.73
72950;BME280;64868;45.710;9.590;2024-03-06T02:05:23;98469.47;;;7.25;90.65
72950;BME280;64868;45.710;9.590;2024-03-06T02:07:59;98453.38;;;7.19;90.40
72950;BME280;64868;45.710;9.590;2024-03-06T02:10:34;98484.19;;;7.32;90.31
72950;BME280;64868;45.710;9.590;2024-03-06T02:13:07;98541.03;;;7.68;90.42
72950;BME280;64868;45.710;9.590;2024-03-06T02:15:44;98472.47;;;7.23;90.03
72950;BME280;64868;45.710;9.590;2024-03-06T02:18:12;98474.28;;;7.28;90.33
72950;BME280;64868;45.710;9.590;2024-03-06T02:20:41;98559.13;;;7.82;89.87
72950;BME280;64868;45.710;9.590;2024-03-06T02:23:08;98505.38;;;7.53;90.22
72950;BME280;64868;45.710;9.590;2024-03-06T02:25:35;98480.06;;;7.35;89.68
72950;BME280;64868;45.710;9.590;2024-03-06T02:28:01;98548.13;;;7.78;90.13
72950;BME280;64868;45.710;9.590;2024-03-06T02:30:41;98505.69;;;7.51;90.87
72950;BME280;64868;45.710;9.590;2024-03-06T02:33:09;98527.59;;;7.63;90.91
72950;BME280;64868;45.710;9.590;2024-03-06T02:35:35;98547.03;;;7.65;91.20
72950;BME280;64868;45.710;9.590;2024-03-06T02:38:04;98499.63;;;7.32;90.58
72950;BME280;64868;45.710;9.590;2024-03-06T02:40:43;98511.09;;;7.37;91.37
72950;BME280;64868;45.710;9.590;2024-03-06T02:43:12;98571.16;;;7.75;91.59
72950;BME280;64868;45.710;9.590;2024-03-06T02:45:55;98531.47;;;7.48;91.22
72950;BME280;64868;45.710;9.590;2024-03-06T02:48:22;98584.59;;;7.81;92.16
72950;BME280;64868;45.710;9.590;2024-03-06T02:50:48;98527.06;;;7.39;91.35
72950;BME280;64868;45.710;9.590;2024-03-06T02:53:17;98562.97;;;7.67;92.77
72950;BME280;64868;45.710;9.590;2024-03-06T02:55:52;98540.25;;;7.54;92.87
72950;BME280;64868;45.710;9.590;2024-03-06T02:58:35;98577.38;;;7.76;93.09
72950;BME280;64868;45.710;9.590;2024-03-06T03:01:25;98525.97;;;7.40;92.55
72950;BME280;64868;45.710;9.590;2024-03-06T03:04:10;98511.84;;;7.29;92.85
72950;BME280;64868;45.710;9.590;2024-03-06T03:06:43;98627.78;;;7.99;92.50
72950;BME280;64868;45.710;9.590;2024-03-06T03:09:15;98553.03;;;7.40;92.24
72950;BME280;64868;45.710;9.590;2024-03-06T03:11:59;98561.72;;;7.37;92.05
72950;BME280;64868;45.710;9.590;2024-03-06T03:14:39;98634.41;;;7.93;92.24
72950;BME280;64868;45.710;9.590;2024-03-06T03:17:23;98555.09;;;7.43;92.26
72950;BME280;64868;45.710;9.590;2024-03-06T03:19:55;98563.13;;;7.48;92.79
72950;BME280;64868;45.710;9.590;2024-03-06T03:22:33;98532.19;;;7.27;91.56
72950;BME280;64868;45.710;9.590;2024-03-06T03:25:22;98535.50;;;7.24;90.87
72950;BME280;64868;45.710;9.590;2024-03-06T03:27:59;98554.56;;;7.18;90.22
72950;BME280;64868;45.710;9.590;2024-03-06T03:30:26;98532.31;;;7.08;89.72
72950;BME280;64868;45.710;9.590;2024-03-06T03:33:05;98528.53;;;7.09;90.00
72950;BME280;64868;45.710;9.590;2024-03-06T03:39:10;98511.09;;;6.87;87.98
72950;BME280;64868;45.710;9.590;2024-03-06T03:41:53;98609.34;;;7.38;88.93
72950;BME280;64868;45.710;9.590;2024-03-06T03:44:31;98596.84;;;7.28;87.35
72950;BME280;64868;45.710;9.590;2024-03-06T03:47:02;98533.50;;;6.88;87.23
72950;BME280;64868;45.710;9.590;2024-03-06T03:49:28;98536.81;;;6.85;87.32
72950;BME280;64868;45.710;9.590;2024-03-06T03:52:08;98517.31;;;6.74;88.16
72950;BME280;64868;45.710;9.590;2024-03-06T03:54:35;98567.28;;;7.04;88.50
72950;BME280;64868;45.710;9.590;2024-03-06T03:57:12;98526.59;;;6.68;88.49
72950;BME280;64868;45.710;9.590;2024-03-06T03:59:46;98528.00;;;6.66;88.27
72950;BME280;64868;45.710;9.590;2024-03-06T04:02:18;98565.47;;;6.86;87.91
72950;BME280;64868;45.710;9.590;2024-03-06T04:04:55;98554.34;;;6.74;88.27
72950;BME280;64868;45.710;9.590;2024-03-06T04:07:28;98518.00;;;6.52;86.70
72950;BME280;64868;45.710;9.590;2024-03-06T04:09:54;98510.38;;;6.41;86.82
72950;BME280;64868;45.710;9.590;2024-03-06T04:12:20;98528.56;;;6.35;87.35
72950;BME280;64868;45.710;9.590;2024-03-06T04:14:46;98571.34;;;6.60;87.19
72950;BME280;64868;45.710;9.590;2024-03-06T04:17:12;98565.16;;;6.60;87.63
72950;BME280;64868;45.710;9.590;2024-03-06T04:19:44;98506.41;;;6.19;86.79
72950;BME280;64868;45.710;9.590;2024-03-06T04:22:22;98597.09;;;6.72;86.55
72950;BME280;64868;45.710;9.590;2024-03-06T04:24:48;98568.31;;;6.48;86.94
72950;BME280;64868;45.710;9.590;2024-03-06T04:27:15;98513.22;;;6.17;87.02
72950;BME280;64868;45.710;9.590;2024-03-06T04:32:36;98525.91;;;6.16;86.45
72950;BME280;64868;45.710;9.590;2024-03-06T04:35:11;98599.06;;;6.66;86.79
72950;BME280;64868;45.710;9.590;2024-03-06T04:37:39;98530.44;;;6.21;86.16
72950;BME280;64868;45.710;9.590;2024-03-06T04:40:06;98615.00;;;6.68;84.40
72950;BME280;64868;45.710;9.590;2024-03-06T04:42:34;98523.53;;;6.15;83.08
72950;BME280;64868;45.710;9.590;2024-03-06T04:45:21;98616.50;;;6.60;84.47
72950;BME280;64868;45.710;9.590;2024-03-06T04:47:47;98520.56;;;5.97;83.32
72950;BME280;64868;45.710;9.590;2024-03-06T04:50:13;98568.75;;;6.23;82.37
72950;BME280;64868;45.710;9.590;2024-03-06T04:52:43;98562.88;;;6.02;82.92
72950;BME280;64868;45.710;9.590;2024-03-06T04:55:19;98578.44;;;5.91;84.36
72950;BME280;64868;45.710;9.590;2024-03-06T04:58:01;98518.63;;;5.46;83.51
72950;BME280;64868;45.710;9.590;2024-03-06T05:00:28;98567.84;;;5.76;84.29
72950;BME280;64868;45.710;9.590;2024-03-06T05:03:09;98558.88;;;5.62;83.81
72950;BME280;64868;45.710;9.590;2024-03-06T05:05:49;98611.97;;;5.85;82.22
72950;BME280;64868;45.710;9.590;2024-03-06T05:08:24;98571.13;;;5.73;81.10
72950;BME280;64868;45.710;9.590;2024-03-06T05:10:52;98583.22;;;5.57;83.08
72950;BME280;64868;45.710;9.590;2024-03-06T05:13:20;98586.13;;;5.41;82.51
72950;BME280;64868;45.710;9.590;2024-03-06T05:15:51;98617.97;;;5.39;83.80
72950;BME280;64868;45.710;9.590;2024-03-06T05:18:42;98622.59;;;5.58;82.67
72950;BME280;64868;45.710;9.590;2024-03-06T05:21:14;98564.59;;;5.17;83.20
72950;BME280;64868;45.710;9.590;2024-03-06T05:23:54;98537.66;;;4.94;83.29
72950;BME280;64868;45.710;9.590;2024-03-06T05:26:25;98577.72;;;5.24;84.41
72950;BME280;64868;45.710;9.590;2024-03-06T05:28:57;98608.88;;;5.35;84.21
72950;BME280;64868;45.710;9.590;2024-03-06T05:31:31;98610.25;;;5.33;84.63
72950;BME280;64868;45.710;9.590;2024-03-06T05:33:57;98623.09;;;5.60;84.34
72950;BME280;64868;45.710;9.590;2024-03-06T05:36:24;98617.19;;;5.58;84.00
72950;BME280;64868;45.710;9.590;2024-03-06T05:42:14;98626.91;;;6.01;82.98
72950;BME280;64868;45.710;9.590;2024-03-06T05:44:53;98624.41;;;6.05;82.13
72950;BME280;64868;45.710;9.590;2024-03-06T05:47:20;98615.06;;;5.97;82.60
72950;BME280;64868;45.710;9.590;2024-03-06T05:49:45;98643.00;;;6.07;82.80
72950;BME280;64868;45.710;9.590;2024-03-06T05:52:13;98642.34;;;6.15;82.09
72950;BME280;64868;45.710;9.590;2024-03-06T05:54:46;98595.94;;;5.94;82.16
72950;BME280;64868;45.710;9.590;2024-03-06T05:57:14;98636.66;;;6.16;82.38
72950;BME280;64868;45.710;9.590;2024-03-06T05:59:42;98571.19;;;5.68;81.54
72950;BME280;64868;45.710;9.590;2024-03-06T06:02:35;98641.19;;;6.21;82.82
72950;BME280;64868;45.710;9.590;2024-03-06T06:05:01;98630.94;;;6.18;81.65
72950;BME280;64868;45.710;9.590;2024-03-06T06:07:39;98636.34;;;6.18;82.02
72950;BME280;64868;45.710;9.590;2024-03-06T06:10:17;98630.38;;;6.21;81.38
72950;BME280;64868;45.710;9.590;2024-03-06T06:12:46;98657.63;;;6.38;81.48
72950;BME280;64868;45.710;9.590;2024-03-06T06:15:14;98668.97;;;6.40;81.54
72950;BME280;64868;45.710;9.590;2024-03-06T06:17:46;98645.69;;;6.25;81.52
72950;BME280;64868;45.710;9.590;2024-03-06T06:20:25;98672.19;;;6.42;81.69
72950;BME280;64868;45.710;9.590;2024-03-06T06:23:05;98653.44;;;6.32;82.54
72950;BME280;64868;45.710;9.590;2024-03-06T06:25:31;98658.88;;;6.46;80.90
72950;BME280;64868;45.710;9.590;2024-03-06T06:27:59;98660.28;;;6.43;80.39
72950;BME280;64868;45.710;9.590;2024-03-06T06:30:52;98690.44;;;6.50;81.07
72950;BME280;64868;45.710;9.590;2024-03-06T06:33:20;98695.03;;;6.50;80.51
72950;BME280;64868;45.710;9.590;2024-03-06T06:36:22;98698.44;;;6.55;80.60
72950;BME280;64868;45.710;9.590;2024-03-06T06:39:06;98703.19;;;6.64;80.20
72950;BME280;64868;45.710;9.590;2024-03-06T06:41:56;98713.69;;;6.65;80.53
72950;BME280;64868;45.710;9.590;2024-03-06T06:44:24;98711.59;;;6.62;79.66
72950;BME280;64868;45.710;9.590;2024-03-06T06:47:04;98720.81;;;6.61;81.13
72950;BME280;64868;45.710;9.590;2024-03-06T06:49:32;98702.34;;;6.49;80.43
72950;BME280;64868;45.710;9.590;2024-03-06T06:52:03;98721.59;;;6.61;80.90
72950;BME280;64868;45.710;9.590;2024-03-06T06:54:49;98727.44;;;6.69;81.39
72950;BME280;64868;45.710;9.590;2024-03-06T06:57:34;98726.25;;;6.75;81.28
72950;BME280;64868;45.710;9.590;2024-03-06T07:00:02;98719.75;;;6.76;81.05
72950;BME280;64868;45.710;9.590;2024-03-06T07:02:38;98737.41;;;6.87;81.02
72950;BME280;64868;45.710;9.590;2024-03-06T07:08:43;98747.81;;;7.12;79.88
72950;BME280;64868;45.710;9.590;2024-03-06T07:11:17;98745.28;;;7.16;78.89
72950;BME280;64868;45.710;9.590;2024-03-06T07:13:55;98737.47;;;7.14;77.36
72950;BME280;64868;45.710;9.590;2024-03-06T07:16:56;98763.00;;;7.41;76.13
72950;BME280;64868;45.710;9.590;2024-03-06T07:22:37;98759.75;;;7.25;78.32
72950;BME280;64868;45.710;9.590;2024-03-06T07:25:03;98731.75;;;7.16;78.16
72950;BME280;64868;45.710;9.590;2024-03-06T07:27:42;98749.22;;;7.37;78.70
72950;BME280;64868;45.710;9.590;2024-03-06T07:30:20;98755.69;;;7.55;78.23
72950;BME280;64868;45.710;9.590;2024-03-06T07:32:47;98774.22;;;7.75;78.08
72950;BME280;64868;45.710;9.590;2024-03-06T07:38:18;98754.50;;;7.61;77.77
72950;BME280;64868;45.710;9.590;2024-03-06T07:41:04;98787.59;;;7.99;76.41
72950;BME280;64868;45.710;9.590;2024-03-06T07:43:31;98786.97;;;8.02;76.29
72950;BME280;64868;45.710;9.590;2024-03-06T07:46:29;98778.75;;;8.21;76.43
72950;BME280;64868;45.710;9.590;2024-03-06T07:55:50;98787.22;;;8.92;73.64
72950;BME280;64868;45.710;9.590;2024-03-06T07:58:25;98793.84;;;9.31;72.18
72950;BME280;64868;45.710;9.590;2024-03-06T08:10:43;98796.53;;;9.84;70.48
72950;BME280;64868;45.710;9.590;2024-03-06T08:20:00;98794.44;;;18.38;41.75
72950;BME280;64868;45.710;9.590;2024-03-06T08:22:25;98804.91;;;18.51;40.92
72950;BME280;64868;45.710;9.590;2024-03-06T08:24:52;98816.56;;;15.77;46.26
72950;BME280;64868;45.710;9.590;2024-03-06T08:30:46;98810.44;;;13.29;55.31
72950;BME280;64868;45.710;9.590;2024-03-06T08:33:17;98824.63;;;12.81;56.40
72950;BME280;64868;45.710;9.590;2024-03-06T08:35:53;98822.69;;;12.01;58.69
72950;BME280;64868;45.710;9.590;2024-03-06T08:41:28;98810.78;;;12.35;59.96
72950;BME280;64868;45.710;9.590;2024-03-06T08:44:01;98820.69;;;12.49;58.61
72950;BME280;64868;45.710;9.590;2024-03-06T08:46:43;98837.41;;;12.39;57.42
72950;BME280;64868;45.710;9.590;2024-03-06T08:52:46;98848.41;;;11.83;59.60
72950;BME280;64868;45.710;9.590;2024-03-06T08:55:34;98856.81;;;11.99;59.22
72950;BME280;64868;45.710;9.590;2024-03-06T08:58:19;98871.34;;;11.56;58.56
72950;BME280;64868;45.710;9.590;2024-03-06T09:06:51;98876.31;;;10.76;63.16
72950;BME280;64868;45.710;9.590;2024-03-06T09:12:26;98883.06;;;10.30;64.90
72950;BME280;64868;45.710;9.590;2024-03-06T09:15:04;98855.94;;;10.08;64.71
72950;BME280;64868;45.710;9.590;2024-03-06T09:17:36;98855.75;;;10.04;64.99
72950;BME280;64868;45.710;9.590;2024-03-06T09:20:31;98881.72;;;10.19;67.20
72950;BME280;64868;45.710;9.590;2024-03-06T09:26:22;98868.44;;;10.66;64.10
72950;BME280;64868;45.710;9.590;2024-03-06T09:28:48;98890.88;;;10.89;64.72
72950;BME280;64868;45.710;9.590;2024-03-06T09:31:49;98885.47;;;11.24;62.29
72950;BME280;64868;45.710;9.590;2024-03-06T09:34:34;98890.88;;;11.58;62.86
72950;BME280;64868;45.710;9.590;2024-03-06T09:37:20;98891.97;;;12.68;58.25
72950;BME280;64868;45.710;9.590;2024-03-06T09:43:19;98893.91;;;13.18;57.66
72950;BME280;64868;45.710;9.590;2024-03-06T09:46:04;98904.97;;;14.09;52.61
72950;BME280;64868;45.710;9.590;2024-03-06T09:48:33;98903.25;;;13.38;54.73
72950;BME280;64868;45.710;9.590;2024-03-06T09:51:03;98903.88;;;12.63;57.01
72950;BME280;64868;45.710;9.590;2024-03-06T09:53:30;98878.13;;;12.05;59.63
72950;BME280;64868;45.710;9.590;2024-03-06T09:56:16;98897.41;;;12.00;59.97
72950;BME280;64868;45.710;9.590;2024-03-06T09:58:48;98897.94;;;11.85;59.88
72950;BME280;64868;45.710;9.590;2024-03-06T10:04:46;98909.91;;;14.27;55.58
72950;BME280;64868;45.710;9.590;2024-03-06T10:10:43;98927.66;;;13.13;56.02
72950;BME280;64868;45.710;9.590;2024-03-06T10:16:33;98911.75;;;12.27;58.82
72950;BME280;64868;45.710;9.590;2024-03-06T10:19:20;98936.50;;;13.40;58.59
72950;BME280;64868;45.710;9.590;2024-03-06T10:21:49;98927.63;;;14.79;53.60
72950;BME280;64868;45.710;9.590;2024-03-06T10:24:27;98923.63;;;14.88;49.83
72950;BME280;64868;45.710;9.590;2024-03-06T10:33:39;98929.50;;;12.80;58.90
72950;BME280;64868;45.710;9.590;2024-03-06T10:42:47;98928.91;;;11.81;63.43
72950;BME280;64868;45.710;9.590;2024-03-06T10:45:15;98927.94;;;11.33;64.79
72950;BME280;64868;45.710;9.590;2024-03-06T10:47:48;98913.91;;;10.66;66.64
72950;BME280;64868;45.710;9.590;2024-03-06T10:50:21;98923.75;;;10.44;69.37
72950;BME280;64868;45.710;9.590;2024-03-06T10:52:47;98945.00;;;10.33;70.06
72950;BME280;64868;45.710;9.590;2024-03-06T10:55:17;98928.41;;;10.21;70.14
72950;BME280;64868;45.710;9.590;2024-03-06T10:57:52;98944.34;;;10.05;71.57
72950;BME280;64868;45.710;9.590;2024-03-06T11:00:44;98936.13;;;9.97;72.74
72950;BME280;64868;45.710;9.590;2024-03-06T11:03:17;98925.94;;;9.80;74.12
72950;BME280;64868;45.710;9.590;2024-03-06T11:09:05;98945.19;;;9.92;73.60
72950;BME280;64868;45.710;9.590;2024-03-06T11:11:48;98928.81;;;9.75;75.17
72950;BME280;64868;45.710;9.590;2024-03-06T11:14:24;98937.63;;;9.81;74.25
72950;BME280;64868;45.710;9.590;2024-03-06T11:17:20;98956.63;;;9.81;72.51
72950;BME280;64868;45.710;9.590;2024-03-06T11:20:15;98955.72;;;9.85;72.93
72950;BME280;64868;45.710;9.590;2024-03-06T11:23:05;98953.94;;;10.12;74.21
72950;BME280;64868;45.710;9.590;2024-03-06T11:28:40;98949.78;;;10.37;72.32
72950;BME280;64868;45.710;9.590;2024-03-06T11:31:10;98929.16;;;10.36;73.96
72950;BME280;64868;45.710;9.590;2024-03-06T11:33:52;98935.81;;;10.69;72.73
72950;BME280;64868;45.710;9.590;2024-03-06T11:36:36;98937.78;;;10.77;73.25
72950;BME280;64868;45.710;9.590;2024-03-06T11:39:11;98928.06;;;10.94;72.27
72950;BME280;64868;45.710;9.590;2024-03-06T11:42:07;98934.00;;;11.39;71.73
72950;BME280;64868;45.710;9.590;2024-03-06T11:45:12;98922.97;;;11.61;70.34
72950;BME280;64868;45.710;9.590;2024-03-06T11:50:52;98933.34;;;11.76;68.94
72950;BME280;64868;45.710;9.590;2024-03-06T11:53:41;98934.34;;;11.63;68.79
72950;BME280;64868;45.710;9.590;2024-03-06T11:56:31;98928.72;;;11.86;69.68
72950;BME280;64868;45.710;9.590;2024-03-06T12:02:27;98923.25;;;12.41;67.78
72950;BME280;64868;45.710;9.590;2024-03-06T12:05:12;98924.41;;;12.31;68.27
72950;BME280;64868;45.710;9.590;2024-03-06T12:07:48;98930.72;;;12.91;66.33
72950;BME280;64868;45.710;9.590;2024-03-06T12:10:28;98894.63;;;13.27;65.01
72950;BME280;64868;45.710;9.590;2024-03-06T12:12:56;98920.34;;;14.46;62.56
72950;BME280;64868;45.710;9.590;2024-03-06T12:15:23;98922.94;;;14.55;59.67
72950;BME280;64868;45.710;9.590;2024-03-06T12:17:52;98926.41;;;14.06;61.37
72950;BME280;64868;45.710;9.590;2024-03-06T12:20:18;98890.69;;;13.16;62.11
72950;BME280;64868;45.710;9.590;2024-03-06T12:22:48;98936.00;;;12.87;65.53
72950;BME280;64868;45.710;9.590;2024-03-06T12:25:22;98934.31;;;12.74;66.17
72950;BME280;64868;45.710;9.590;2024-03-06T12:27:48;98926.72;;;12.59;66.09
72950;BME280;64868;45.710;9.590;2024-03-06T12:30:18;98900.28;;;12.04;66.68
72950;BME280;64868;45.710;9.590;2024-03-06T12:33:03;98920.00;;;12.10;67.03
72950;BME280;64868;45.710;9.590;2024-03-06T12:35:45;98919.38;;;11.95;67.21
72950;BME280;64868;45.710;9.590;2024-03-06T12:38:54;98924.19;;;11.98;69.63
72950;BME280;64868;45.710;9.590;2024-03-06T12:44:51;98920.91;;;12.31;67.90
72950;BME280;64868;45.710;9.590;2024-03-06T12:47:23;98871.53;;;12.15;67.99
72950;BME280;64868;45.710;9.590;2024-03-06T12:50:12;98922.72;;;12.48;66.74
72950;BME280;64868;45.710;9.590;2024-03-06T12:52:52;98884.41;;;12.06;66.80
72950;BME280;64868;45.710;9.590;2024-03-06T12:55:20;98919.31;;;12.21;67.51
72950;BME280;64868;45.710;9.590;2024-03-06T12:57:48;98912.91;;;12.55;68.04
72950;BME280;64868;45.710;9.590;2024-03-06T13:00:27;98909.09;;;12.77;67.05
72950;BME280;64868;45.710;9.590;2024-03-06T13:03:11;98915.56;;;13.23;67.47
72950;BME280;64868;45.710;9.590;2024-03-06T13:05:38;98914.25;;;14.41;61.66
72950;BME280;64868;45.710;9.590;2024-03-06T13:08:06;98880.38;;;15.34;57.15
72950;BME280;64868;45.710;9.590;2024-03-06T13:11:01;98908.88;;;17.31;51.18
72950;BME280;64868;45.710;9.590;2024-03-06T13:13:28;98905.84;;;18.17;49.83
72950;BME280;64868;45.710;9.590;2024-03-06T13:16:04;98907.81;;;18.40;46.95
72950;BME280;64868;45.710;9.590;2024-03-06T13:18:32;98894.81;;;19.16;44.63
72950;BME280;64868;45.710;9.590;2024-03-06T13:20:58;98889.38;;;18.93;42.73
72950;BME280;64868;45.710;9.590;2024-03-06T13:23:39;98857.00;;;18.86;42.83
72950;BME280;64868;45.710;9.590;2024-03-06T13:26:06;98899.09;;;19.10;41.10
72950;BME280;64868;45.710;9.590;2024-03-06T13:28:43;98878.13;;;18.06;42.78
72950;BME280;64868;45.710;9.590;2024-03-06T13:31:17;98876.53;;;18.05;43.36
72950;BME280;64868;45.710;9.590;2024-03-06T13:33:49;98882.78;;;18.02;42.00
72950;BME280;64868;45.710;9.590;2024-03-06T13:36:15;98903.16;;;16.54;46.08
72950;BME280;64868;45.710;9.590;2024-03-06T13:38:42;98898.75;;;15.34;49.05
72950;BME280;64868;45.710;9.590;2024-03-06T13:41:09;98901.84;;;14.55;51.32
72950;BME280;64868;45.710;9.590;2024-03-06T13:43:36;98907.13;;;14.15;52.72
72950;BME280;64868;45.710;9.590;2024-03-06T13:46:02;98865.16;;;13.54;55.34
72950;BME280;64868;45.710;9.590;2024-03-06T13:48:28;98892.00;;;13.39;55.97
72950;BME280;64868;45.710;9.590;2024-03-06T13:51:25;98896.69;;;13.09;57.55
72950;BME280;64868;45.710;9.590;2024-03-06T13:54:13;98898.81;;;13.04;59.00
72950;BME280;64868;45.710;9.590;2024-03-06T13:56:39;98896.13;;;12.95;58.46
72950;BME280;64868;45.710;9.590;2024-03-06T13:59:05;98897.31;;;12.85;58.46
72950;BME280;64868;45.710;9.590;2024-03-06T14:01:44;98864.78;;;12.51;58.59
72950;BME280;64868;45.710;9.590;2024-03-06T14:04:10;98900.34;;;12.63;59.62
72950;BME280;64868;45.710;9.590;2024-03-06T14:06:42;98872.84;;;12.68;58.95
72950;BME280;64868;45.710;9.590;2024-03-06T14:09:14;98883.22;;;12.83;56.93
72950;BME280;64868;45.710;9.590;2024-03-06T14:11:39;98895.06;;;13.38;54.24
72950;BME280;64868;45.710;9.590;2024-03-06T14:14:06;98895.88;;;14.17;52.99
72950;BME280;64868;45.710;9.590;2024-03-06T14:16:39;98880.16;;;14.38;51.29
72950;BME280;64868;45.710;9.590;2024-03-06T14:19:06;98883.53;;;15.08;51.36
72950;BME280;64868;45.710;9.590;2024-03-06T14:21:32;98848.75;;;15.81;48.05
72950;BME280;64868;45.710;9.590;2024-03-06T14:23:59;98891.06;;;17.64;42.10
72950;BME280;64868;45.710;9.590;2024-03-06T14:26:25;98864.22;;;17.76;39.12
72950;BME280;64868;45.710;9.590;2024-03-06T14:28:54;98890.19;;;18.21;39.47
72950;BME280;64868;45.710;9.590;2024-03-06T14:31:26;98878.34;;;18.67;38.88
72950;BME280;64868;45.710;9.590;2024-03-06T14:33:57;98862.97;;;18.39;41.39
72950;BME280;64868;45.710;9.590;2024-03-06T14:36:24;98857.28;;;17.25;44.16
72950;BME280;64868;45.710;9.590;2024-03-06T14:38:51;98877.41;;;15.67;49.87
72950;BME280;64868;45.710;9.590;2024-03-06T14:41:19;98867.28;;;14.63;52.76
72950;BME280;64868;45.710;9.590;2024-03-06T14:43:48;98879.59;;;15.62;50.18
72950;BME280;64868;45.710;9.590;2024-03-06T14:46:14;98869.84;;;16.55;45.83
72950;BME280;64868;45.710;9.590;2024-03-06T14:48:39;98869.22;;;17.13;44.45
72950;BME280;64868;45.710;9.590;2024-03-06T14:51:07;98876.88;;;17.42;41.48
72950;BME280;64868;45.710;9.590;2024-03-06T14:53:33;98869.50;;;17.27;41.38
72950;BME280;64868;45.710;9.590;2024-03-06T14:55:58;98880.72;;;17.76;39.80
72950;BME280;64868;45.710;9.590;2024-03-06T14:58:30;98874.13;;;17.62;39.85
72950;BME280;64868;45.710;9.590;2024-03-06T15:00:56;98875.13;;;18.15;37.89
72950;BME280;64868;45.710;9.590;2024-03-06T15:03:23;98874.91;;;18.01;38.11
72950;BME280;64868;45.710;9.590;2024-03-06T15:05:48;98839.16;;;17.82;37.37
72950;BME280;64868;45.710;9.590;2024-03-06T15:08:15;98877.50;;;17.71;36.90
72950;BME280;64868;45.710;9.590;2024-03-06T15:10:42;98881.22;;;17.43;38.07
72950;BME280;64868;45.710;9.590;2024-03-06T15:13:15;98863.94;;;17.82;38.11
72950;BME280;64868;45.710;9.590;2024-03-06T15:15:41;98864.22;;;17.38;37.42
72950;BME280;64868;45.710;9.590;2024-03-06T15:18:08;98888.44;;;15.83;42.02
72950;BME280;64868;45.710;9.590;2024-03-06T15:20:34;98887.47;;;14.58;46.32
72950;BME280;64868;45.710;9.590;2024-03-06T15:23:00;98889.84;;;13.78;48.09
72950;BME280;64868;45.710;9.590;2024-03-06T15:25:27;98871.84;;;13.44;47.75
72950;BME280;64868;45.710;9.590;2024-03-06T15:27:54;98843.22;;;13.08;49.81
72950;BME280;64868;45.710;9.590;2024-03-06T15:30:21;98833.06;;;12.88;49.79
72950;BME280;64868;45.710;9.590;2024-03-06T15:32:55;98885.63;;;13.06;51.35
72950;BME280;64868;45.710;9.590;2024-03-06T15:35:23;98884.41;;;12.95;51.85
72950;BME280;64868;45.710;9.590;2024-03-06T15:37:49;98885.56;;;12.93;51.18